createdAt,value
2023-10-23T00:04:36.009Z,90.33
2023-10-23T00:09:38.111Z,90.78
2023-10-23T00:14:39.862Z,91.00
2023-10-23T00:19:41.582Z,93.00
2023-10-23T00:24:43.193Z,92.93
2023-10-23T00:29:44.821Z,93.47
2023-10-23T00:34:46.391Z,93.33
2023-10-23T00:39:48.112Z,94.08
2023-10-23T00:44:49.706Z,94.04
2023-10-23T00:49:51.691Z,94.29
2023-10-23T00:54:53.987Z,94.06
2023-10-23T00:59:56.323Z,94.36
2023-10-23T01:04:57.983Z,95.20
2023-10-23T01:09:59.798Z,94.92
2023-10-23T01:15:01.386Z,94.59
2023-10-23T01:20:04.281Z,94.01
2023-10-23T01:25:14.663Z,93.87
2023-10-23T01:30:16.325Z,93.93
2023-10-23T01:35:17.993Z,93.86
2023-10-23T01:40:19.827Z,93.97
2023-10-23T01:45:21.438Z,94.15
2023-10-23T01:50:23.115Z,94.43
2023-10-23T01:55:24.797Z,94.42
2023-10-23T02:00:26.961Z,95.04
2023-10-23T02:05:28.654Z,96.73
2023-10-23T02:10:30.435Z,97.08
2023-10-23T02:15:32.179Z,97.72
2023-10-23T02:20:33.769Z,98.67
2023-10-23T02:25:35.361Z,97.94
2023-10-23T02:30:37.688Z,97.94
2023-10-23T02:35:39.408Z,97.53
2023-10-23T02:40:41.180Z,97.65
2023-10-23T02:45:42.733Z,97.45
2023-10-23T02:50:56.048Z,97.24
2023-10-23T02:55:57.633Z,96.70
2023-10-23T03:00:59.199Z,96.60
2023-10-23T03:06:00.812Z,97.44
2023-10-23T03:11:02.362Z,97.35
2023-10-23T03:16:05.058Z,97.06
2023-10-23T03:21:06.726Z,97.53
2023-10-23T03:26:08.552Z,98.67
2023-10-23T03:31:10.195Z,99.69
2023-10-23T03:36:11.808Z,99.34
2023-10-23T03:41:13.482Z,99.02
2023-10-23T03:46:15.221Z,98.92
2023-10-23T03:51:16.822Z,98.73
2023-10-23T03:56:18.540Z,98.85
2023-10-23T04:01:20.168Z,98.53
2023-10-23T04:06:21.932Z,98.19
2023-10-23T04:11:23.762Z,98.29
2023-10-23T04:16:25.371Z,98.15
2023-10-23T04:21:27.062Z,98.76
2023-10-23T04:26:28.846Z,98.70
2023-10-23T04:31:30.576Z,98.44
2023-10-23T04:36:32.175Z,98.16
2023-10-23T04:41:33.814Z,98.45
2023-10-23T04:46:35.350Z,99.17
2023-10-23T04:51:37.117Z,98.53
2023-10-23T04:56:40.633Z,98.29
2023-10-23T05:01:42.272Z,98.12
2023-10-23T05:06:44.015Z,98.42
2023-10-23T05:11:45.635Z,98.34
2023-10-23T05:16:47.594Z,98.04
2023-10-23T05:21:49.281Z,97.74
2023-10-23T05:26:50.880Z,98.62
2023-10-23T05:31:52.433Z,98.83
2023-10-23T05:36:54.145Z,98.21
2023-10-23T05:41:55.771Z,98.24
2023-10-23T05:46:57.477Z,98.43
2023-10-23T05:51:59.108Z,99.27
2023-10-23T05:57:01.224Z,99.42
2023-10-23T06:02:02.824Z,100.00
2023-10-23T06:07:04.641Z,100.00
2023-10-23T06:12:07.475Z,100.00
2023-10-23T06:17:09.138Z,100.00
2023-10-23T06:22:10.759Z,100.00
2023-10-23T06:27:12.489Z,100.00
2023-10-23T06:32:14.481Z,99.64
2023-10-23T06:37:18.243Z,97.12
2023-10-23T06:42:19.954Z,96.39
2023-10-23T06:47:22.411Z,95.21
2023-10-23T06:52:24.049Z,92.62
2023-10-23T06:57:25.692Z,87.55
2023-10-23T07:02:27.273Z,84.67
2023-10-23T07:07:30.545Z,82.31
2023-10-23T07:12:32.578Z,78.60
2023-10-23T07:17:35.393Z,76.45
2023-10-23T07:22:37.788Z,79.68
2023-10-23T07:27:42.192Z,82.19
2023-10-23T07:32:44.356Z,79.61
2023-10-23T07:37:46.057Z,77.87
2023-10-23T07:42:47.691Z,78.34
2023-10-23T07:47:49.933Z,76.71
2023-10-23T07:52:52.691Z,75.07
2023-10-23T07:57:54.427Z,76.70
2023-10-23T08:02:56.341Z,76.51
2023-10-23T08:07:58.518Z,74.83
2023-10-23T08:13:00.624Z,70.95
2023-10-23T08:18:02.940Z,69.58
2023-10-23T08:23:04.666Z,69.42
2023-10-23T08:28:06.308Z,68.91
2023-10-23T08:33:08.642Z,72.52
2023-10-23T08:38:10.248Z,71.30
2023-10-23T08:43:12.247Z,70.03
2023-10-23T08:48:14.352Z,70.27
2023-10-23T08:53:16.393Z,71.38
2023-10-23T08:58:19.077Z,70.56
2023-10-23T09:04:02.573Z,72.25
2023-10-23T09:08:44.442Z,71.18
2023-10-23T09:13:45.987Z,69.46
2023-10-23T09:18:52.758Z,70.41
2023-10-23T09:23:56.996Z,71.59
2023-10-23T09:28:58.500Z,70.98
2023-10-23T09:34:01.726Z,71.50
2023-10-23T09:39:04.020Z,72.03
2023-10-23T09:44:06.070Z,70.22
2023-10-23T09:49:07.754Z,69.18
2023-10-23T09:54:17.962Z,68.55
2023-10-23T09:59:22.426Z,68.89
2023-10-23T10:04:30.369Z,67.43
2023-10-23T10:09:33.288Z,66.96
2023-10-23T10:14:35.375Z,68.62
2023-10-23T10:19:38.811Z,68.22
2023-10-23T10:24:41.384Z,67.78
2023-10-23T10:29:44.085Z,66.58
2023-10-23T10:34:55.928Z,66.15
2023-10-23T10:39:59.301Z,67.05
2023-10-23T10:45:07.628Z,66.53
2023-10-23T10:50:11.449Z,66.65
2023-10-23T10:55:14.075Z,65.54
2023-10-23T11:00:16.317Z,65.49
2023-10-23T11:05:17.903Z,64.61
2023-10-23T11:10:21.761Z,63.75
2023-10-23T11:15:23.435Z,63.37
2023-10-23T11:20:29.462Z,62.74
2023-10-23T11:25:31.338Z,59.53
2023-10-23T11:30:32.969Z,58.80
2023-10-23T11:35:34.674Z,57.06
2023-10-23T11:40:36.624Z,57.20
2023-10-23T11:45:40.488Z,57.23
2023-10-23T11:50:43.608Z,57.84
2023-10-23T11:55:45.830Z,58.26
2023-10-23T12:00:47.341Z,58.62
2023-10-23T12:05:49.219Z,57.29
2023-10-23T12:10:51.149Z,57.98
2023-10-23T12:15:52.781Z,58.16
2023-10-23T12:20:56.064Z,58.68
2023-10-23T12:25:58.847Z,57.46
2023-10-23T12:31:00.458Z,57.46
2023-10-23T12:36:05.197Z,55.95
2023-10-23T12:41:06.928Z,55.97
2023-10-23T12:46:09.244Z,57.70
2023-10-23T12:51:11.694Z,58.50
2023-10-23T12:56:13.179Z,58.65
2023-10-23T13:01:14.801Z,58.71
2023-10-23T13:06:16.657Z,59.09
2023-10-23T13:11:18.259Z,60.01
2023-10-23T13:16:20.010Z,60.53
2023-10-23T13:21:31.446Z,61.27
2023-10-23T13:26:38.682Z,62.10
2023-10-23T13:31:40.417Z,63.75
2023-10-23T13:36:42.161Z,65.54
2023-10-23T13:41:44.178Z,66.42
2023-10-23T13:46:46.459Z,67.38
2023-10-23T13:51:48.170Z,67.86
2023-10-23T13:56:49.710Z,68.38
2023-10-23T14:01:51.322Z,68.55
2023-10-23T14:06:52.982Z,69.48
2023-10-23T14:11:54.539Z,69.27
2023-10-23T14:17:02.308Z,69.80
2023-10-23T14:22:04.042Z,70.62
2023-10-23T14:27:05.673Z,71.27
2023-10-23T14:32:07.413Z,71.15
2023-10-23T14:37:09.244Z,70.97
2023-10-23T14:42:11.284Z,71.26
2023-10-23T14:47:13.654Z,70.65
2023-10-23T14:52:15.624Z,70.73
2023-10-23T14:57:17.246Z,71.26
2023-10-23T15:02:18.908Z,71.57
2023-10-23T15:07:20.523Z,71.61
2023-10-23T15:12:22.583Z,71.78
2023-10-23T15:17:24.385Z,72.75
2023-10-23T15:22:27.143Z,72.93
2023-10-23T15:27:28.885Z,73.29
2023-10-23T15:32:32.911Z,74.06
2023-10-23T15:37:34.605Z,74.44
2023-10-23T15:42:36.189Z,75.12
2023-10-23T15:47:37.837Z,76.17
2023-10-23T15:52:39.485Z,76.78
2023-10-23T15:57:41.147Z,77.27
2023-10-23T16:02:42.736Z,78.11
2023-10-23T16:07:44.399Z,78.94
2023-10-23T16:12:46.044Z,80.74
2023-10-23T16:17:48.051Z,81.20
2023-10-23T16:22:49.721Z,82.09
2023-10-23T16:27:53.689Z,82.56
2023-10-23T16:32:56.998Z,83.29
2023-10-23T16:37:59.325Z,83.97
2023-10-23T16:43:02.427Z,84.47
2023-10-23T16:48:04.751Z,84.97
2023-10-23T16:53:07.145Z,85.28
2023-10-23T16:58:09.909Z,86.60
2023-10-23T17:03:13.424Z,86.90
2023-10-23T17:08:21.341Z,87.63
2023-10-23T17:13:27.903Z,88.37
2023-10-23T17:18:31.350Z,89.08
2023-10-23T17:23:35.859Z,88.77
2023-10-23T17:28:40.086Z,89.43
2023-10-23T17:33:43.303Z,90.08
2023-10-23T17:38:48.510Z,90.99
2023-10-23T17:43:53.548Z,90.76
2023-10-23T17:48:57.209Z,90.13
2023-10-23T17:54:05.681Z,90.51
2023-10-23T17:59:09.938Z,90.17
2023-10-23T18:04:13.512Z,91.81
2023-10-23T18:09:17.288Z,92.07
2023-10-23T18:14:25.420Z,92.47
2023-10-23T18:19:30.300Z,93.31
2023-10-23T18:24:34.599Z,94.68
2023-10-23T18:29:41.957Z,95.08
2023-10-23T18:34:46.811Z,94.93
2023-10-23T18:39:50.741Z,96.11
2023-10-23T18:44:55.887Z,96.18
2023-10-23T18:50:02.497Z,96.74
2023-10-23T18:55:06.372Z,98.86
2023-10-23T19:00:11.019Z,98.58
2023-10-23T19:05:14.897Z,98.51
2023-10-23T19:10:21.485Z,98.64
2023-10-23T19:15:24.907Z,98.93
2023-10-23T19:20:28.910Z,98.79
2023-10-23T19:25:33.511Z,98.12
2023-10-23T19:30:38.503Z,98.69
2023-10-23T19:35:42.290Z,97.53
2023-10-23T19:40:51.412Z,96.21
2023-10-23T19:45:55.129Z,95.78
2023-10-23T19:51:01.859Z,95.41
2023-10-23T19:56:06.645Z,95.69
2023-10-23T20:01:10.122Z,95.88
2023-10-23T20:06:14.142Z,95.79
2023-10-23T20:11:18.175Z,96.12
2023-10-23T20:16:21.156Z,96.29
2023-10-23T20:21:23.875Z,97.40
2023-10-23T20:26:25.605Z,97.92
2023-10-23T20:31:27.336Z,97.69
2023-10-23T20:36:29.052Z,97.89
2023-10-23T20:41:30.619Z,98.25
2023-10-23T20:46:32.597Z,98.33
2023-10-23T20:51:34.216Z,98.49
2023-10-23T20:56:35.969Z,98.23
2023-10-23T21:01:37.845Z,98.42
2023-10-23T21:06:39.452Z,100.00
2023-10-23T21:11:41.180Z,100.00
2023-10-23T21:16:43.317Z,100.00
2023-10-23T21:21:46.613Z,100.00
2023-10-23T21:26:49.136Z,100.00
2023-10-23T21:31:52.919Z,100.00
2023-10-23T21:36:54.824Z,100.00
2023-10-23T21:41:56.409Z,100.00
2023-10-23T21:46:58.043Z,100.00
2023-10-23T21:52:00.367Z,100.00
2023-10-23T21:57:22.597Z,100.00
2023-10-23T22:02:24.186Z,100.00
2023-10-23T22:07:26.038Z,100.00
2023-10-23T22:12:27.978Z,100.00
2023-10-23T22:17:29.562Z,100.00
2023-10-23T22:22:31.411Z,100.00
2023-10-23T22:27:34.940Z,100.00
2023-10-23T22:32:36.795Z,100.00
2023-10-23T22:38:00.234Z,100.00
2023-10-23T22:43:00.100Z,100.00
2023-10-23T22:48:01.716Z,100.00
2023-10-23T22:53:03.629Z,100.00
2023-10-23T22:58:06.578Z,100.00
2023-10-23T23:03:08.632Z,100.00
2023-10-23T23:08:13.627Z,100.00
2023-10-23T23:13:15.609Z,100.00
2023-10-23T23:18:20.105Z,100.00
2023-10-23T23:23:22.004Z,100.00
2023-10-23T23:28:23.636Z,100.00
2023-10-23T23:33:25.387Z,100.00
2023-10-23T23:38:27.013Z,100.00
2023-10-23T23:43:28.646Z,100.00
2023-10-23T23:48:30.452Z,100.00
2023-10-23T23:53:32.000Z,100.00
2023-10-23T23:58:33.674Z,100.00
